createdAt,value
2022-09-07T00:00:15.683Z,3.35
2022-09-07T00:02:43.579Z,4.30
2022-09-07T00:05:11.314Z,4.43
2022-09-07T00:07:38.885Z,3.92
2022-09-07T00:10:07.339Z,4.25
2022-09-07T00:12:34.929Z,4.93
2022-09-07T00:15:04.180Z,4.57
2022-09-07T00:17:31.818Z,5.45
2022-09-07T00:19:59.671Z,4.82
2022-09-07T00:22:27.704Z,5.22
2022-09-07T00:24:55.293Z,5.10
2022-09-07T00:27:23.442Z,5.70
2022-09-07T00:29:51.058Z,5.15
2022-09-07T00:32:18.808Z,6.05
2022-09-07T00:34:46.412Z,6.38
2022-09-07T00:37:14.063Z,5.60
2022-09-07T00:39:41.745Z,6.43
2022-09-07T00:42:09.655Z,6.72
2022-09-07T00:44:43.549Z,9.02
2022-09-07T00:47:31.667Z,10.27
2022-09-07T00:50:12.298Z,9.73
2022-09-07T00:52:42.636Z,9.45
2022-09-07T00:55:13.674Z,10.50
2022-09-07T00:57:47.038Z,11.98
2022-09-07T01:00:15.181Z,12.07
2022-09-07T01:02:43.103Z,11.63
2022-09-07T01:05:21.937Z,15.32
2022-09-07T01:07:49.746Z,16.10
2022-09-07T01:10:17.664Z,15.55
2022-09-07T01:12:45.295Z,16.80
2022-09-07T01:15:12.988Z,17.95
2022-09-07T01:18:10.273Z,17.35
2022-09-07T01:21:22.551Z,17.08
2022-09-07T01:24:33.417Z,16.25
2022-09-07T01:27:44.827Z,17.52
2022-09-07T01:30:16.666Z,16.73
2022-09-07T01:33:05.899Z,17.55
2022-09-07T01:36:39.545Z,16.67
2022-09-07T01:39:08.188Z,16.05
2022-09-07T01:41:50.525Z,15.82
2022-09-07T01:44:30.983Z,15.35
2022-09-07T01:47:16.329Z,17.30
2022-09-07T01:49:58.449Z,14.77
2022-09-07T01:52:39.916Z,15.65
2022-09-07T01:55:17.100Z,15.68
2022-09-07T01:57:58.592Z,14.38
2022-09-07T02:00:26.438Z,14.93
2022-09-07T02:03:10.443Z,14.23
2022-09-07T02:06:08.923Z,14.48
2022-09-07T02:08:42.088Z,13.90
2022-09-07T02:11:23.426Z,14.48
2022-09-07T02:13:54.887Z,12.93
2022-09-07T02:16:28.438Z,13.30
2022-09-07T02:19:11.712Z,11.77
2022-09-07T02:21:48.492Z,12.60
2022-09-07T02:24:22.871Z,13.48
2022-09-07T02:26:54.187Z,12.38
2022-09-07T02:29:22.227Z,12.02
2022-09-07T02:31:51.474Z,12.10
2022-09-07T02:34:20.281Z,11.10
2022-09-07T02:36:50.310Z,11.85
2022-09-07T02:39:18.370Z,11.82
2022-09-07T02:41:46.701Z,11.02
2022-09-07T02:44:19.579Z,11.13
2022-09-07T02:47:27.127Z,11.95
2022-09-07T02:51:06.648Z,11.25
2022-09-07T02:53:52.292Z,11.85
2022-09-07T02:56:59.838Z,12.07
2022-09-07T02:59:45.619Z,12.80
2022-09-07T03:03:00.408Z,12.57
2022-09-07T03:05:41.510Z,11.63
2022-09-07T03:08:18.855Z,11.00
2022-09-07T03:10:47.627Z,11.57
2022-09-07T03:13:26.255Z,11.55
2022-09-07T03:15:56.149Z,12.07
2022-09-07T03:18:28.466Z,13.30
2022-09-07T03:20:56.581Z,10.80
2022-09-07T03:23:24.964Z,10.90
2022-09-07T03:25:52.822Z,10.30
2022-09-07T03:28:20.424Z,12.65
2022-09-07T03:30:48.521Z,11.85
2022-09-07T03:33:17.118Z,11.65
2022-09-07T03:35:46.572Z,12.00
2022-09-07T03:38:14.211Z,10.60
2022-09-07T03:40:41.897Z,10.02
2022-09-07T03:43:09.554Z,11.10
2022-09-07T03:45:37.213Z,10.88
2022-09-07T03:48:05.018Z,11.00
2022-09-07T03:50:32.685Z,10.70
2022-09-07T03:53:00.278Z,10.77
2022-09-07T03:55:27.897Z,10.30
2022-09-07T03:57:55.565Z,9.90
2022-09-07T04:00:23.260Z,9.23
2022-09-07T04:02:50.962Z,9.40
2022-09-07T04:05:18.618Z,9.32
2022-09-07T04:07:48.704Z,8.90
2022-09-07T04:10:16.492Z,8.88
2022-09-07T04:12:44.226Z,8.80
2022-09-07T04:15:11.999Z,10.02
2022-09-07T04:17:40.005Z,9.68
2022-09-07T04:20:08.475Z,8.15
2022-09-07T04:22:36.155Z,9.73
2022-09-07T04:25:04.091Z,9.52
2022-09-07T04:27:31.870Z,9.23
2022-09-07T04:29:59.555Z,9.23
2022-09-07T04:32:27.159Z,9.18
2022-09-07T04:34:54.834Z,9.90
2022-09-07T04:37:22.734Z,9.90
2022-09-07T04:39:50.479Z,9.32
2022-09-07T04:42:18.739Z,8.98
2022-09-07T04:44:49.509Z,8.55
2022-09-07T04:47:17.882Z,8.77
2022-09-07T04:49:45.620Z,7.95
2022-09-07T04:52:13.215Z,8.27
2022-09-07T04:54:40.955Z,7.97
2022-09-07T04:57:12.382Z,9.63
2022-09-07T04:59:40.010Z,9.23
2022-09-07T05:02:07.816Z,8.45
2022-09-07T05:04:36.576Z,8.57
2022-09-07T05:07:04.264Z,8.38
2022-09-07T05:09:31.929Z,9.48
2022-09-07T05:11:59.559Z,9.43
2022-09-07T05:14:27.301Z,8.82
2022-09-07T05:16:55.058Z,9.45
2022-09-07T05:19:23.069Z,9.07
2022-09-07T05:21:50.735Z,9.10
2022-09-07T05:24:18.357Z,9.60
2022-09-07T05:26:46.327Z,9.43
2022-09-07T05:32:01.834Z,9.38
2022-09-07T05:34:30.044Z,9.80
2022-09-07T05:36:58.185Z,8.95
2022-09-07T05:39:26.794Z,8.07
2022-09-07T05:41:54.525Z,8.50
2022-09-07T05:47:10.847Z,8.98
2022-09-07T05:49:38.784Z,9.07
2022-09-07T05:52:06.897Z,11.32
2022-09-07T05:54:34.949Z,10.85
2022-09-07T05:57:03.655Z,9.25
2022-09-07T05:59:31.443Z,10.50
2022-09-07T06:01:59.665Z,11.75
2022-09-07T06:04:27.369Z,12.25
2022-09-07T06:12:30.318Z,10.02
2022-09-07T06:14:57.953Z,10.27
2022-09-07T06:17:25.593Z,14.05
2022-09-07T06:19:53.232Z,14.13
2022-09-07T06:22:21.444Z,14.15
2022-09-07T06:24:49.190Z,19.38
2022-09-07T06:27:16.818Z,41.70
2022-09-07T06:29:44.408Z,56.10
2022-09-07T06:34:59.655Z,27.13
2022-09-07T06:37:27.279Z,30.55
2022-09-07T06:39:54.913Z,27.80
2022-09-07T06:42:22.581Z,32.92
2022-09-07T06:44:53.851Z,33.00
2022-09-07T06:47:21.492Z,32.00
2022-09-07T06:49:49.158Z,38.60
2022-09-07T06:52:16.900Z,41.25
2022-09-07T06:55:00.630Z,19.80
2022-09-07T06:57:28.726Z,17.08
2022-09-07T06:59:56.436Z,17.00
2022-09-07T07:02:24.130Z,15.98
2022-09-07T07:04:51.776Z,17.35
2022-09-07T07:07:19.417Z,17.35
2022-09-07T07:09:49.926Z,17.35
2022-09-07T07:14:45.197Z,17.80
2022-09-07T07:17:13.629Z,20.05
2022-09-07T07:19:41.355Z,20.45
2022-09-07T07:22:45.432Z,23.85
2022-09-07T07:24:56.673Z,23.08
2022-09-07T07:27:24.412Z,25.48
2022-09-07T07:29:52.686Z,21.13
2022-09-07T07:32:20.371Z,20.55
2022-09-07T07:34:48.127Z,15.57
2022-09-07T07:37:16.229Z,15.68
2022-09-07T07:42:32.663Z,14.73
2022-09-07T07:47:51.638Z,12.52
2022-09-07T07:50:34.902Z,12.98
2022-09-07T07:55:51.178Z,10.90
2022-09-07T07:58:19.602Z,11.00
2022-09-07T08:00:56.138Z,10.15
2022-09-07T08:03:25.452Z,10.60
2022-09-07T08:05:54.446Z,10.45
2022-09-07T08:08:23.829Z,9.82
2022-09-07T08:10:52.003Z,9.50
2022-09-07T08:13:19.909Z,8.95
2022-09-07T08:15:47.583Z,8.93
2022-09-07T08:18:16.946Z,8.20
2022-09-07T08:20:44.641Z,7.60
2022-09-07T08:23:12.249Z,6.32
2022-09-07T08:25:52.995Z,6.70
2022-09-07T08:28:24.128Z,5.95
2022-09-07T08:30:52.358Z,4.90
2022-09-07T08:33:20.516Z,4.95
2022-09-07T08:36:01.077Z,4.80
2022-09-07T08:38:33.845Z,22.58
2022-09-07T08:41:16.983Z,5.55
2022-09-07T08:43:59.609Z,5.00
2022-09-07T08:47:00.634Z,4.72
2022-09-07T08:49:47.477Z,4.95
2022-09-07T08:52:25.806Z,4.25
2022-09-07T08:55:09.548Z,4.63
2022-09-07T08:57:45.594Z,3.75
2022-09-07T09:00:16.771Z,4.32
2022-09-07T09:02:45.732Z,5.38
2022-09-07T09:05:25.654Z,4.45
2022-09-07T09:08:10.977Z,3.78
2022-09-07T09:10:53.549Z,4.32
2022-09-07T09:13:58.433Z,4.35
2022-09-07T09:16:41.627Z,3.88
2022-09-07T09:19:47.103Z,4.25
2022-09-07T09:22:20.074Z,3.00
2022-09-07T09:24:53.583Z,2.90
2022-09-07T09:27:21.180Z,3.08
2022-09-07T09:29:48.775Z,3.22
2022-09-07T09:32:37.663Z,3.72
2022-09-07T09:35:32.967Z,3.85
2022-09-07T09:38:03.478Z,2.90
2022-09-07T09:40:37.190Z,3.10
2022-09-07T09:43:21.121Z,3.25
2022-09-07T09:48:42.084Z,3.80
2022-09-07T09:54:22.901Z,2.78
2022-09-07T09:56:51.141Z,2.57
2022-09-07T10:05:41.431Z,1.85
2022-09-07T10:08:22.949Z,2.22
2022-09-07T10:11:15.483Z,2.08
2022-09-07T10:13:55.793Z,2.05
2022-09-07T10:16:41.179Z,2.05
2022-09-07T10:19:34.967Z,3.05
2022-09-07T10:22:39.022Z,1.92
2022-09-07T10:25:44.398Z,2.13
2022-09-07T10:28:15.545Z,2.28
2022-09-07T10:31:22.227Z,2.20
2022-09-07T10:39:41.385Z,1.98
2022-09-07T10:42:35.666Z,2.10
2022-09-07T10:45:15.402Z,1.83
2022-09-07T10:47:47.067Z,1.80
2022-09-07T10:50:31.878Z,1.65
2022-09-07T10:53:39.503Z,1.58
2022-09-07T10:56:15.356Z,2.08
2022-09-07T10:59:24.829Z,2.83
2022-09-07T11:02:34.295Z,1.80
2022-09-07T11:05:52.209Z,1.92
2022-09-07T11:12:07.241Z,2.28
2022-09-07T11:14:46.665Z,3.03
2022-09-07T11:17:25.225Z,2.10
2022-09-07T11:20:18.969Z,2.45
2022-09-07T11:22:55.899Z,2.40
2022-09-07T11:26:40.440Z,1.75
2022-09-07T11:29:29.473Z,1.83
2022-09-07T11:32:10.180Z,2.10
2022-09-07T11:34:53.691Z,2.05
2022-09-07T11:37:32.360Z,1.63
2022-09-07T11:40:27.706Z,2.28
2022-09-07T11:43:23.013Z,1.67
2022-09-07T11:46:32.329Z,1.88
2022-09-07T11:49:03.397Z,2.00
2022-09-07T11:51:41.898Z,2.35
2022-09-07T11:54:34.308Z,1.73
2022-09-07T11:57:35.216Z,1.83
2022-09-07T12:00:20.650Z,2.00
2022-09-07T12:03:04.478Z,1.98
2022-09-07T12:06:04.009Z,1.73
2022-09-07T12:08:52.779Z,1.85
2022-09-07T12:12:02.005Z,1.70
2022-09-07T12:14:58.325Z,2.17
2022-09-07T12:20:41.049Z,2.10
2022-09-07T12:23:17.477Z,1.80
2022-09-07T12:25:48.254Z,2.30
2022-09-07T12:28:36.371Z,1.92
2022-09-07T12:31:57.688Z,2.20
2022-09-07T12:34:31.670Z,2.13
2022-09-07T12:37:26.710Z,2.58
2022-09-07T12:40:32.131Z,2.50
2022-09-07T12:43:15.099Z,2.08
2022-09-07T12:45:42.636Z,2.22
2022-09-07T12:48:16.287Z,1.92
2022-09-07T12:50:58.770Z,1.92
2022-09-07T12:53:40.371Z,2.33
2022-09-07T12:56:29.606Z,1.58
2022-09-07T12:59:28.001Z,2.42
2022-09-07T13:02:22.139Z,2.15
2022-09-07T13:05:09.478Z,1.73
2022-09-07T13:08:21.933Z,1.80
2022-09-07T13:10:50.480Z,1.58
2022-09-07T13:19:46.915Z,1.38
2022-09-07T13:22:32.719Z,1.40
2022-09-07T13:25:21.860Z,1.48
2022-09-07T13:28:01.084Z,1.50
2022-09-07T13:31:00.698Z,1.85
2022-09-07T13:33:28.310Z,1.77
2022-09-07T13:36:02.508Z,2.13
2022-09-07T13:38:33.735Z,1.65
2022-09-07T13:41:12.461Z,1.73
2022-09-07T13:43:40.645Z,1.50
2022-09-07T13:46:57.636Z,1.60
2022-09-07T13:50:05.529Z,1.40
2022-09-07T13:53:09.158Z,1.60
2022-09-07T13:56:10.079Z,1.67
2022-09-07T13:58:49.412Z,1.58
2022-09-07T14:01:24.672Z,2.05
2022-09-07T14:03:54.330Z,1.40
2022-09-07T14:06:22.000Z,1.70
2022-09-07T14:08:58.891Z,1.75
2022-09-07T14:11:47.155Z,2.13
2022-09-07T14:14:30.948Z,1.90
2022-09-07T14:17:01.801Z,1.75
2022-09-07T14:19:40.697Z,1.88
2022-09-07T14:22:31.859Z,1.90
2022-09-07T14:25:03.143Z,1.30
2022-09-07T14:27:34.525Z,1.85
2022-09-07T14:30:29.638Z,1.60
2022-09-07T14:33:15.416Z,2.40
2022-09-07T14:35:43.801Z,1.90
2022-09-07T14:41:18.832Z,2.47
2022-09-07T14:43:56.512Z,2.05
2022-09-07T14:46:28.631Z,2.10
2022-09-07T14:48:59.731Z,1.83
2022-09-07T14:51:36.468Z,2.15
2022-09-07T14:54:07.294Z,2.22
2022-09-07T14:56:41.864Z,1.67
2022-09-07T14:59:36.720Z,1.90
2022-09-07T15:02:19.775Z,1.75
2022-09-07T15:05:10.737Z,2.08
2022-09-07T15:07:41.703Z,2.10
2022-09-07T15:10:13.106Z,1.35
2022-09-07T15:12:49.603Z,2.17
2022-09-07T15:15:27.181Z,2.00
2022-09-07T15:18:03.186Z,2.60
2022-09-07T15:20:40.905Z,2.08
2022-09-07T15:23:15.459Z,2.42
2022-09-07T15:25:50.949Z,2.17
2022-09-07T15:34:18.118Z,2.00
2022-09-07T15:36:52.040Z,1.70
2022-09-07T15:39:27.991Z,2.25
2022-09-07T15:41:56.726Z,1.75
2022-09-07T15:44:26.065Z,1.60
2022-09-07T15:49:49.500Z,1.83
2022-09-07T15:52:18.855Z,2.07
2022-09-07T15:54:46.699Z,1.73
2022-09-07T16:00:02.574Z,1.73
2022-09-07T16:05:30.887Z,1.70
2022-09-07T16:11:05.481Z,1.45
2022-09-07T16:16:02.051Z,1.70
2022-09-07T16:18:33.169Z,1.67
2022-09-07T16:21:12.197Z,2.05
2022-09-07T16:23:44.181Z,2.05
2022-09-07T16:26:13.446Z,1.65
2022-09-07T16:28:44.894Z,1.98
2022-09-07T16:31:22.512Z,2.00
2022-09-07T16:33:50.293Z,2.22
2022-09-07T16:36:18.723Z,3.30
2022-09-07T16:38:49.499Z,2.33
2022-09-07T16:41:31.817Z,2.13
2022-09-07T16:44:00.136Z,2.08
2022-09-07T16:46:34.977Z,2.05
2022-09-07T16:49:03.616Z,2.28
2022-09-07T16:51:31.206Z,2.03
2022-09-07T16:53:59.684Z,1.85
2022-09-07T16:56:30.124Z,1.83
2022-09-07T16:59:04.412Z,1.85
2022-09-07T17:01:37.913Z,2.40
2022-09-07T17:04:10.653Z,1.95
2022-09-07T17:06:41.598Z,2.15
2022-09-07T17:09:11.622Z,2.33
2022-09-07T17:11:39.286Z,2.47
2022-09-07T17:14:07.086Z,2.30
2022-09-07T17:16:38.313Z,2.50
2022-09-07T17:21:57.362Z,2.70
2022-09-07T17:24:25.320Z,2.28
2022-09-07T17:26:52.957Z,2.17
2022-09-07T17:29:20.795Z,2.67
2022-09-07T17:34:36.257Z,2.80
2022-09-07T17:37:03.885Z,2.65
2022-09-07T17:39:31.593Z,2.00
2022-09-07T17:41:59.300Z,2.67
2022-09-07T17:44:30.705Z,2.45
2022-09-07T17:47:00.997Z,2.65
2022-09-07T17:49:29.441Z,2.25
2022-09-07T17:51:58.585Z,1.95
2022-09-07T17:54:26.486Z,1.77
2022-09-07T17:56:54.668Z,1.92
2022-09-07T18:02:14.010Z,1.80
2022-09-07T18:04:42.930Z,1.80
2022-09-07T18:07:11.048Z,1.80
2022-09-07T18:09:39.274Z,2.33
2022-09-07T18:12:07.652Z,1.63
2022-09-07T18:14:35.706Z,1.85
2022-09-07T18:17:05.205Z,1.63
2022-09-07T18:19:32.980Z,2.40
2022-09-07T18:22:02.688Z,1.88
2022-09-07T18:24:30.864Z,2.10
2022-09-07T18:26:58.856Z,1.85
2022-09-07T18:29:34.235Z,1.90
2022-09-07T18:32:11.068Z,1.55
2022-09-07T18:34:41.303Z,1.75
2022-09-07T18:37:12.380Z,2.00
2022-09-07T18:39:40.715Z,2.15
2022-09-07T18:42:09.799Z,2.40
2022-09-07T18:47:29.720Z,1.85
2022-09-07T18:50:01.136Z,1.88
2022-09-07T18:55:17.575Z,2.03
2022-09-07T18:57:45.342Z,1.95
2022-09-07T19:00:14.468Z,2.22
2022-09-07T19:02:42.302Z,1.90
2022-09-07T19:07:59.658Z,2.95
2022-09-07T19:10:27.989Z,1.67
2022-09-07T19:12:56.335Z,2.30
2022-09-07T19:15:24.024Z,1.45
2022-09-07T19:17:52.204Z,2.22
2022-09-07T19:20:20.578Z,1.92
2022-09-07T19:22:48.903Z,2.00
2022-09-07T19:25:19.407Z,2.35
2022-09-07T19:27:47.293Z,1.58
2022-09-07T19:30:15.584Z,1.50
2022-09-07T19:32:43.507Z,1.75
2022-09-07T19:35:11.368Z,1.50
2022-09-07T19:37:38.963Z,1.70
2022-09-07T19:40:08.526Z,1.67
2022-09-07T19:42:36.241Z,1.58
2022-09-07T19:45:04.296Z,1.70
2022-09-07T19:47:31.936Z,1.50
2022-09-07T19:49:59.547Z,1.77
2022-09-07T19:52:27.210Z,1.33
2022-09-07T19:54:54.943Z,1.35
2022-09-07T19:57:22.597Z,1.50
2022-09-07T19:59:55.742Z,2.03
2022-09-07T20:02:24.723Z,1.77
2022-09-07T20:04:52.431Z,1.40
2022-09-07T20:07:20.086Z,1.65
2022-09-07T20:09:50.513Z,1.50
2022-09-07T20:12:21.294Z,1.60
2022-09-07T20:14:48.961Z,1.63
2022-09-07T20:17:16.518Z,3.03
2022-09-07T20:19:44.139Z,1.65
2022-09-07T20:22:12.027Z,1.70
2022-09-07T20:24:40.051Z,1.35
2022-09-07T20:27:08.555Z,1.58
2022-09-07T20:29:36.102Z,2.47
2022-09-07T20:32:03.889Z,2.03
2022-09-07T20:34:32.212Z,1.95
2022-09-07T20:36:59.784Z,1.90
2022-09-07T20:39:27.358Z,1.92
2022-09-07T20:41:55.054Z,2.03
2022-09-07T20:44:22.743Z,1.55
2022-09-07T20:46:50.372Z,1.85
2022-09-07T20:49:18.160Z,2.17
2022-09-07T20:51:45.772Z,1.88
2022-09-07T20:54:13.597Z,1.95
2022-09-07T20:56:41.231Z,1.73
2022-09-07T20:59:08.965Z,2.40
2022-09-07T21:01:36.869Z,2.17
2022-09-07T21:04:06.153Z,2.10
2022-09-07T21:06:33.914Z,2.33
2022-09-07T21:09:01.809Z,2.10
2022-09-07T21:11:35.701Z,1.90
2022-09-07T21:14:10.297Z,2.20
2022-09-07T21:16:38.801Z,3.15
2022-09-07T21:19:09.145Z,2.33
2022-09-07T21:21:42.543Z,2.35
2022-09-07T21:24:18.843Z,2.30
2022-09-07T21:26:47.604Z,2.08
2022-09-07T21:29:23.117Z,2.40
2022-09-07T21:34:21.570Z,1.70
2022-09-07T21:36:49.466Z,1.92
2022-09-07T21:39:17.725Z,1.92
2022-09-07T21:41:45.404Z,1.73
2022-09-07T21:44:15.367Z,2.30
2022-09-07T21:46:44.043Z,2.03
2022-09-07T21:49:11.933Z,2.60
2022-09-07T21:51:39.828Z,1.90
2022-09-07T21:54:08.049Z,2.08
2022-09-07T21:56:36.323Z,2.53
2022-09-07T21:59:04.713Z,2.00
2022-09-07T22:01:33.495Z,2.35
2022-09-07T22:04:04.804Z,2.08
2022-09-07T22:06:33.260Z,2.25
2022-09-07T22:09:02.365Z,2.33
2022-09-07T22:11:30.534Z,2.45
2022-09-07T22:14:02.616Z,2.25
2022-09-07T22:16:32.561Z,2.45
2022-09-07T22:19:00.629Z,2.85
2022-09-07T22:21:30.106Z,2.38
2022-09-07T22:24:01.821Z,2.25
2022-09-07T22:26:33.099Z,3.05
2022-09-07T22:29:01.042Z,2.38
2022-09-07T22:31:34.316Z,2.60
2022-09-07T22:34:04.286Z,2.35
2022-09-07T22:36:36.055Z,2.28
2022-09-07T22:39:08.949Z,2.80
2022-09-07T22:41:38.640Z,2.25
2022-09-07T22:44:10.070Z,2.35
2022-09-07T22:46:40.147Z,2.72
2022-09-07T22:49:08.967Z,2.40
2022-09-07T22:51:36.642Z,2.42
2022-09-07T22:54:04.873Z,2.72
2022-09-07T22:56:33.983Z,2.42
2022-09-07T22:59:05.591Z,1.90
2022-09-07T23:01:34.383Z,2.35
2022-09-07T23:04:02.974Z,2.67
2022-09-07T23:06:37.224Z,1.77
2022-09-07T23:09:14.109Z,2.17
2022-09-07T23:11:42.794Z,2.38
2022-09-07T23:14:24.472Z,2.53
2022-09-07T23:16:52.055Z,1.90
2022-09-07T23:19:20.457Z,2.15
2022-09-07T23:21:48.425Z,2.28
2022-09-07T23:24:19.116Z,2.03
2022-09-07T23:26:47.030Z,2.00
2022-09-07T23:29:15.831Z,2.10
2022-09-07T23:31:45.654Z,2.35
2022-09-07T23:34:13.340Z,2.28
2022-09-07T23:36:40.898Z,2.03
2022-09-07T23:39:09.540Z,2.47
2022-09-07T23:41:37.131Z,2.00
2022-09-07T23:44:05.010Z,2.55
2022-09-07T23:46:32.607Z,2.55
2022-09-07T23:49:00.267Z,2.50
2022-09-07T23:51:28.015Z,2.28
2022-09-07T23:53:55.573Z,2.53
2022-09-07T23:56:24.759Z,2.33
2022-09-07T23:58:52.426Z,2.95
